Time;durP1;ratioP1;P1;durP2;ratioP2;P2;SDS_P1;SDS_P2;PMS_P1;PMS_P2;Temp;Humidity;BMP_temperature;BMP_pressure;BME280_temperature;BME280_humidity;BME280_pressure;Samples;Min_cycle;Max_cycle;Signal;HPM_P1;HPM_P2
2023/06/04 00:00:12;;;;;;;4.78;1.25;;;;;;;13.43;51.09;101991.97;5026489;28;20493;-72
2023/06/04 00:02:57;;;;;;;2.53;1.20;;;;;;;13.39;51.49;101992.97;5026061;28;20089;-71
2023/06/04 00:05:43;;;;;;;1.35;0.95;;;;;;;13.35;51.74;101983.31;5010150;28;20058;-73
2023/06/04 00:08:28;;;;;;;3.35;1.10;;;;;;;13.29;52.22;101986.13;5027798;28;20038;-74
2023/06/04 00:11:13;;;;;;;2.85;1.20;;;;;;;13.25;52.29;101989.75;5024550;28;20615;-73
2023/06/04 00:14:00;;;;;;;1.90;1.20;;;;;;;13.19;52.56;101989.00;5023393;28;21524;-73
2023/06/04 00:16:45;;;;;;;2.95;1.38;;;;;;;13.17;52.69;101976.72;5026917;28;20042;-73
2023/06/04 00:19:33;;;;;;;3.53;1.20;;;;;;;13.15;52.68;101981.16;5028417;28;20604;-73
2023/06/04 00:22:19;;;;;;;1.70;1.05;;;;;;;13.14;53.33;101972.31;5027116;28;20054;-73
2023/06/04 00:25:05;;;;;;;5.80;1.17;;;;;;;13.13;53.34;101982.97;5025923;28;20050;-72
2023/06/04 00:27:51;;;;;;;3.78;1.30;;;;;;;13.11;53.85;101972.41;5026762;28;20074;-73
2023/06/04 00:30:37;;;;;;;2.42;1.30;;;;;;;13.08;53.93;101977.78;5030925;28;20058;-73
2023/06/04 00:33:22;;;;;;;2.70;1.05;;;;;;;13.07;53.67;101978.69;5027045;28;20192;-73
2023/06/04 00:36:08;;;;;;;2.28;1.00;;;;;;;13.03;54.20;101972.59;5013287;28;20636;-74
2023/06/04 00:38:54;;;;;;;2.70;1.02;;;;;;;13.00;54.25;101979.72;5028036;28;20049;-74
2023/06/04 00:41:39;;;;;;;2.17;1.02;;;;;;;12.95;54.35;101981.59;5027757;28;20054;-74
2023/06/04 00:44:25;;;;;;;5.38;1.33;;;;;;;12.89;54.13;101977.31;5024933;28;20545;-74
2023/06/04 00:47:12;;;;;;;3.45;1.00;;;;;;;12.86;54.39;101980.03;5008115;28;20042;-74
2023/06/04 00:49:58;;;;;;;3.00;1.20;;;;;;;12.82;54.82;101975.72;5017391;28;20050;-74
2023/06/04 00:52:43;;;;;;;4.05;1.13;;;;;;;12.78;55.31;101977.56;5025175;28;20049;-74
2023/06/04 00:55:28;;;;;;;1.98;1.00;;;;;;;12.71;55.48;101968.88;5027800;28;20053;-74
2023/06/04 00:58:15;;;;;;;2.58;1.30;;;;;;;12.72;55.72;101981.19;5017739;28;20042;-73
2023/06/04 01:01:10;;;;;;;3.17;1.10;;;;;;;12.70;55.87;101980.34;5025970;28;20054;-73
2023/06/04 01:03:59;;;;;;;2.78;1.05;;;;;;;12.68;55.94;101982.16;5008394;28;20047;-72
2023/06/04 01:06:53;;;;;;;1.50;1.08;;;;;;;12.67;56.14;101983.06;5011514;28;20050;-72
2023/06/04 01:09:39;;;;;;;4.35;1.08;;;;;;;12.61;56.10;101984.97;5011997;28;20050;-73
2023/06/04 01:12:25;;;;;;;3.13;1.13;;;;;;;12.54;56.34;101982.44;5011570;28;20160;-73
2023/06/04 01:15:11;;;;;;;4.38;1.33;;;;;;;12.49;56.70;101979.03;5022433;28;20042;-72
2023/06/04 01:18:03;;;;;;;4.40;1.33;;;;;;;12.46;56.91;101983.53;5024749;28;20506;-72
2023/06/04 01:20:50;;;;;;;4.60;1.15;;;;;;;12.40;56.87;101981.88;5026684;28;20329;-73
2023/06/04 01:24:00;;;;;;;1.90;1.20;;;;;;;12.35;57.00;101971.38;5009092;28;20603;-72
2023/06/04 01:26:46;;;;;;;3.05;1.10;;;;;;;12.31;57.32;101982.03;5012412;28;20050;-74
2023/06/04 01:29:32;;;;;;;2.25;1.00;;;;;;;12.29;57.45;101991.78;5030371;28;20050;-74
2023/06/04 01:32:18;;;;;;;2.28;1.15;;;;;;;12.25;57.40;101981.25;5025606;28;20110;-74
2023/06/04 01:35:11;;;;;;;3.25;1.20;;;;;;;12.19;57.95;101977.84;5025893;28;20832;-74
2023/06/04 01:37:57;;;;;;;3.00;1.27;;;;;;;12.15;58.00;101977.03;5026284;28;20655;-75
2023/06/04 01:40:42;;;;;;;1.80;1.17;;;;;;;12.14;58.14;101969.16;5004482;28;20095;-75
2023/06/04 01:43:28;;;;;;;1.52;1.00;;;;;;;12.11;58.14;101977.97;5023712;28;20046;-75
2023/06/04 01:46:14;;;;;;;3.88;1.40;;;;;;;12.08;58.12;101983.34;5025094;28;20133;-74
2023/06/04 01:48:59;;;;;;;2.25;0.90;;;;;;;12.04;58.34;101979.88;5009981;28;20105;-73
2023/06/04 01:51:46;;;;;;;2.38;1.00;;;;;;;12.04;58.55;101979.88;5026663;28;20877;-73
2023/06/04 01:54:32;;;;;;;3.17;1.20;;;;;;;12.04;58.19;101977.25;5027494;28;20046;-74
2023/06/04 01:57:20;;;;;;;4.65;1.23;;;;;;;12.01;58.50;101972.00;5012611;28;20058;-74
2023/06/04 02:00:09;;;;;;;5.63;1.35;;;;;;;11.96;58.68;101982.63;5011246;28;20042;-73
2023/06/04 02:02:57;;;;;;;3.13;1.30;;;;;;;11.90;59.04;101974.81;5013805;28;20049;-72
2023/06/04 02:05:45;;;;;;;1.55;1.20;;;;;;;11.86;59.12;101983.69;4992851;28;20046;-72
2023/06/04 02:08:33;;;;;;;1.77;1.10;;;;;;;11.85;59.31;101968.75;5009064;28;20054;-73
2023/06/04 02:11:18;;;;;;;2.65;1.10;;;;;;;11.83;59.35;101974.94;5018332;28;20038;-75
2023/06/04 02:14:03;;;;;;;2.53;1.20;;;;;;;11.84;59.73;101974.06;5024968;28;20141;-74
2023/06/04 02:16:50;;;;;;;3.28;1.25;;;;;;;11.78;59.57;101983.81;5009406;28;20057;-74
2023/06/04 02:19:36;;;;;;;4.57;1.70;;;;;;;11.75;59.85;101980.38;5021369;28;20042;-74
2023/06/04 02:22:21;;;;;;;2.70;1.30;;;;;;;11.72;59.95;101983.03;5024219;28;20050;-74
2023/06/04 02:25:09;;;;;;;5.63;1.42;;;;;;;11.72;60.05;101980.41;5026609;28;20046;-73
2023/06/04 02:27:54;;;;;;;3.85;1.27;;;;;;;11.71;60.22;101976.91;5012253;28;20050;-73
2023/06/04 02:30:40;;;;;;;5.10;1.42;;;;;;;11.76;60.25;101972.41;5016603;28;20050;-73
2023/06/04 02:33:25;;;;;;;4.07;1.38;;;;;;;11.76;59.91;101972.41;5023787;28;20628;-73
2023/06/04 02:36:10;;;;;;;2.25;1.30;;;;;;;11.69;59.94;101983.13;5020529;28;20050;-73
2023/06/04 02:38:56;;;;;;;2.22;1.35;;;;;;;11.62;60.36;101975.28;5025622;28;20053;-74
2023/06/04 02:41:41;;;;;;;2.78;1.45;;;;;;;11.58;60.35;101978.88;5011467;28;20923;-74
2023/06/04 02:44:29;;;;;;;2.70;1.42;;;;;;;11.58;60.37;101978.00;5025139;28;20054;-75
2023/06/04 02:47:14;;;;;;;3.63;1.30;;;;;;;11.54;60.27;101982.47;5009135;28;20054;-75
2023/06/04 02:50:00;;;;;;;3.55;1.40;;;;;;;11.47;60.30;101979.03;5011246;28;20493;-74
2023/06/04 02:52:45;;;;;;;4.07;1.40;;;;;;;11.38;60.78;101981.81;5010767;28;20050;-74
2023/06/04 02:55:31;;;;;;;4.50;1.40;;;;;;;11.29;61.03;101979.34;5024912;28;20050;-74
2023/06/04 02:58:16;;;;;;;4.15;1.52;;;;;;;11.23;61.22;101982.06;5014241;28;20054;-74
2023/06/04 03:01:02;;;;;;;4.30;1.40;;;;;;;11.18;61.30;101980.38;5016768;28;20435;-72
2023/06/04 03:03:47;;;;;;;3.30;1.40;;;;;;;11.16;61.60;101982.16;5023592;28;20597;-73
2023/06/04 03:06:33;;;;;;;2.80;1.30;;;;;;;11.15;61.80;101988.31;4993999;28;20046;-73
2023/06/04 03:09:18;;;;;;;3.47;1.48;;;;;;;11.14;61.86;101986.56;5025307;28;20050;-73
2023/06/04 03:12:04;;;;;;;3.97;1.55;;;;;;;11.10;62.00;101989.28;5019541;28;20042;-71
2023/06/04 03:14:49;;;;;;;2.88;1.38;;;;;;;11.01;62.15;101990.28;5022185;28;20093;-74
2023/06/04 03:17:35;;;;;;;3.03;1.27;;;;;;;10.94;62.46;101996.53;5026645;28;20039;-73
2023/06/04 03:20:23;;;;;;;4.35;2.00;;;;;;;10.90;62.96;102002.75;5009063;28;20054;-74
2023/06/04 03:23:09;;;;;;;2.45;1.48;;;;;;;10.86;63.26;101991.38;5024705;28;20050;-74
2023/06/04 03:25:54;;;;;;;2.92;1.60;;;;;;;10.84;63.42;101993.16;5025613;28;20058;-74
2023/06/04 03:28:40;;;;;;;3.08;1.60;;;;;;;10.81;63.77;101991.44;4996699;28;20644;-74
2023/06/04 03:31:27;;;;;;;3.45;1.60;;;;;;;10.79;64.11;101985.31;5016228;28;20446;-74
2023/06/04 03:34:15;;;;;;;1.77;1.33;;;;;;;10.76;64.36;101985.34;5022982;28;20054;-74
2023/06/04 03:37:00;;;;;;;4.38;1.77;;;;;;;10.75;64.18;101988.00;5012090;28;20050;-73
2023/06/04 03:39:46;;;;;;;5.40;1.55;;;;;;;10.73;64.56;101980.13;5009015;28;20603;-74
2023/06/04 03:42:35;;;;;;;2.33;1.30;;;;;;;10.72;64.62;101979.22;5003670;28;20046;-73
2023/06/04 03:45:21;;;;;;;3.13;1.40;;;;;;;10.76;64.67;101984.47;5008337;28;20054;-73
2023/06/04 03:48:07;;;;;;;4.82;1.48;;;;;;;10.85;64.44;101984.34;5000596;28;20578;-72
2023/06/04 03:50:54;;;;;;;3.83;1.65;;;;;;;10.91;64.30;101993.94;5010391;28;20050;-73
2023/06/04 03:53:39;;;;;;;2.95;1.63;;;;;;;10.89;64.13;101986.03;5009865;28;20058;-74
2023/06/04 03:56:26;;;;;;;4.13;1.63;;;;;;;10.92;64.11;101982.50;5010921;28;20054;-73
2023/06/04 03:59:12;;;;;;;4.45;2.08;;;;;;;10.93;64.16;101993.03;5018430;28;20054;-74
2023/06/04 04:01:59;;;;;;;3.40;1.70;;;;;;;10.93;64.19;101986.91;5014732;28;20058;-74
2023/06/04 04:04:46;;;;;;;2.33;1.50;;;;;;;10.94;64.29;101989.50;5012633;28;20049;-74
2023/06/04 04:07:31;;;;;;;3.83;1.52;;;;;;;10.94;64.08;101989.50;5027760;28;20122;-74
2023/06/04 04:10:16;;;;;;;4.28;1.73;;;;;;;10.95;64.48;101985.97;5024747;28;20642;-75
2023/06/04 04:13:02;;;;;;;3.08;1.65;;;;;;;11.01;64.14;101985.88;5014438;28;20077;-74
2023/06/04 04:15:52;;;;;;;2.08;1.58;;;;;;;11.12;63.94;101990.13;5017981;28;20486;-73
2023/06/04 04:18:46;;;;;;;4.32;1.80;;;;;;;11.11;64.06;101997.19;5013011;28;20105;-73
2023/06/04 04:21:31;;;;;;;7.30;1.75;;;;;;;11.16;64.33;101992.69;5028871;28;20200;-73
2023/06/04 04:24:24;;;;;;;4.03;1.63;;;;;;;11.22;63.97;101994.38;5018512;28;20054;-73
2023/06/04 04:27:13;;;;;;;4.70;1.52;;;;;;;11.25;64.15;101996.09;5013690;28;20046;-73
2023/06/04 04:30:00;;;;;;;3.92;1.83;;;;;;;11.33;63.94;101994.25;5017903;28;20049;-72
2023/06/04 04:32:48;;;;;;;2.15;1.45;;;;;;;11.42;63.49;101993.22;5013957;28;20517;-74
2023/06/04 04:35:42;;;;;;;4.40;1.67;;;;;;;11.44;63.63;101996.72;5010869;28;20042;-74
2023/06/04 04:38:28;;;;;;;4.18;1.80;;;;;;;11.53;63.32;101995.69;5029640;28;20046;-72
2023/06/04 04:41:20;;;;;;;3.28;1.50;;;;;;;11.64;63.06;101997.25;5017234;28;20057;-71
2023/06/04 04:44:06;;;;;;;2.72;1.67;;;;;;;11.74;62.91;101994.47;5005523;28;20127;-70
2023/06/04 04:46:51;;;;;;;2.65;1.70;;;;;;;12.51;60.75;101997.50;5014661;28;20049;-70
2023/06/04 04:49:37;;;;;;;4.38;1.77;;;;;;;12.65;59.96;101992.81;5010629;28;20050;-70
2023/06/04 04:52:22;;;;;;;3.35;1.90;;;;;;;12.60;59.71;101991.16;5010725;28;20506;-70
2023/06/04 04:55:09;;;;;;;3.85;1.80;;;;;;;12.33;60.35;102004.91;5015507;28;20089;-70
2023/06/04 04:57:55;;;;;;;5.72;1.75;;;;;;;12.20;61.02;101999.00;5015455;28;20049;-70
2023/06/04 05:00:42;;;;;;;5.03;1.80;;;;;;;12.34;60.98;102000.47;5027477;28;20050;-71
2023/06/04 05:03:27;;;;;;;3.83;1.80;;;;;;;12.39;60.71;101996.84;5014471;28;20070;-70
2023/06/04 05:06:13;;;;;;;4.07;1.70;;;;;;;12.37;60.57;102003.06;5008947;28;20053;-70
2023/06/04 05:08:59;;;;;;;4.00;1.75;;;;;;;12.44;60.79;102009.97;5025861;28;20302;-70
2023/06/04 05:11:45;;;;;;;3.45;1.73;;;;;;;12.62;60.05;102008.75;5013325;28;20729;-71
2023/06/04 05:14:32;;;;;;;4.55;1.65;;;;;;;12.70;60.06;102005.94;5027327;28;20517;-71
2023/06/04 05:17:21;;;;;;;3.33;1.90;;;;;;;13.23;58.86;102008.31;5019339;28;20049;-71
2023/06/04 05:20:11;;;;;;;2.58;1.75;;;;;;;15.14;54.25;101993.56;5009824;28;20049;-71
2023/06/04 05:23:02;;;;;;;2.65;1.60;;;;;;;14.63;53.91;101996.81;5034199;28;20150;-71
2023/06/04 05:25:48;;;;;;;2.63;1.80;;;;;;;15.10;53.87;101996.34;5018641;28;20057;-71
2023/06/04 05:28:35;;;;;;;4.82;1.90;;;;;;;17.87;47.56;101993.41;5031896;28;20046;-71
2023/06/04 05:31:26;;;;;;;3.47;1.60;;;;;;;19.99;42.80;101976.38;5036239;28;20058;-71
2023/06/04 05:34:16;;;;;;;3.28;1.55;;;;;;;21.56;38.93;101990.09;5014226;28;20046;-71
2023/06/04 05:37:04;;;;;;;2.88;1.55;;;;;;;22.63;36.40;101986.38;5042186;28;20049;-71
2023/06/04 05:39:50;;;;;;;3.35;1.80;;;;;;;23.35;34.54;101984.50;5023950;28;20545;-71
2023/06/04 05:42:36;;;;;;;2.90;1.60;;;;;;;23.80;33.18;101985.03;5023140;28;20145;-70
2023/06/04 05:45:22;;;;;;;2.45;1.30;;;;;;;24.23;32.85;101989.28;5010802;28;20050;-71
2023/06/04 05:48:07;;;;;;;2.10;1.55;;;;;;;24.66;31.96;101980.81;5009144;28;20510;-71
2023/06/04 05:50:53;;;;;;;3.10;1.70;;;;;;;25.16;31.61;101981.78;5011480;28;20462;-71
2023/06/04 05:53:38;;;;;;;3.00;1.40;;;;;;;25.45;30.10;101987.69;5008526;28;20124;-71
2023/06/04 05:56:25;;;;;;;2.33;1.50;;;;;;;25.71;30.51;101992.97;5010719;28;20130;-72
2023/06/04 05:59:12;;;;;;;1.70;1.30;;;;;;;25.87;29.29;101998.03;5010832;28;20490;-71
2023/06/04 06:01:58;;;;;;;2.67;1.40;;;;;;;26.00;29.03;101996.09;5008783;28;20054;-71
2023/06/04 06:04:44;;;;;;;3.47;1.30;;;;;;;26.04;28.88;101989.47;5008814;28;20054;-71
2023/06/04 06:07:30;;;;;;;3.33;1.60;;;;;;;26.22;28.77;101982.78;5024056;28;20085;-71
2023/06/04 06:10:16;;;;;;;2.75;1.40;;;;;;;26.27;28.05;101985.97;5011815;28;20147;-71
2023/06/04 06:13:01;;;;;;;2.03;1.50;;;;;;;25.97;28.51;101990.06;5015351;28;20514;-71
2023/06/04 06:15:48;;;;;;;2.10;1.40;;;;;;;24.30;30.35;101987.00;5017937;28;20838;-71
2023/06/04 06:18:34;;;;;;;3.33;1.60;;;;;;;21.21;34.86;101993.00;5010626;28;20042;-71
2023/06/04 06:21:20;;;;;;;3.90;1.58;;;;;;;19.18;38.99;101992.84;4995948;28;20072;-71
2023/06/04 06:24:05;;;;;;;3.80;1.60;;;;;;;17.92;41.96;102008.28;5012542;28;20050;-71
2023/06/04 06:26:53;;;;;;;3.38;1.90;;;;;;;17.14;44.43;102007.91;5007376;28;20520;-71
2023/06/04 06:29:40;;;;;;;3.58;1.60;;;;;;;16.68;45.64;102012.31;5019770;28;20050;-71
2023/06/04 06:32:27;;;;;;;3.97;1.55;;;;;;;16.31;46.75;102011.88;5037696;28;20478;-71
2023/06/04 06:35:12;;;;;;;3.35;1.80;;;;;;;16.14;48.00;102015.97;5029336;28;20038;-70
2023/06/04 06:37:57;;;;;;;5.97;1.60;;;;;;;16.07;48.46;102013.63;5032939;28;20045;-70
2023/06/04 06:40:43;;;;;;;2.05;1.50;;;;;;;16.01;48.84;102014.69;5025560;28;20050;-71
2023/06/04 06:43:28;;;;;;;2.92;1.58;;;;;;;16.04;49.18;102019.03;5022046;28;20086;-70
2023/06/04 06:46:13;;;;;;;3.25;1.50;;;;;;;16.09;49.37;102017.06;5029474;28;20050;-70
2023/06/04 06:48:59;;;;;;;2.35;1.40;;;;;;;16.19;47.66;102025.59;5028815;28;20045;-70
2023/06/04 06:51:44;;;;;;;3.70;1.70;;;;;;;16.13;47.88;102026.69;5028032;28;20045;-70
2023/06/04 06:54:29;;;;;;;3.38;1.67;;;;;;;16.27;47.00;102024.44;5014676;28;20034;-71
2023/06/04 06:57:15;;;;;;;3.13;1.40;;;;;;;16.39;46.57;102023.09;5014047;28;20105;-72
2023/06/04 07:00:00;;;;;;;3.78;1.55;;;;;;;16.53;46.05;102027.91;5030899;28;20035;-70
2023/06/04 07:02:46;;;;;;;3.53;1.50;;;;;;;16.56;45.60;102027.81;5031852;28;20042;-73
2023/06/04 07:05:31;;;;;;;2.55;1.42;;;;;;;16.64;45.42;102032.84;5027426;28;20057;-73
2023/06/04 07:08:16;;;;;;;3.20;1.50;;;;;;;16.77;45.24;102031.47;5039837;28;20042;-72
2023/06/04 07:11:03;;;;;;;2.90;1.30;;;;;;;16.88;44.38;102035.53;5022051;28;20321;-73
2023/06/04 07:13:48;;;;;;;3.75;1.40;;;;;;;16.96;43.74;102035.28;5014027;28;20054;-73
2023/06/04 07:16:34;;;;;;;2.38;1.30;;;;;;;17.08;42.94;102034.81;5020731;28;20042;-73
2023/06/04 07:19:19;;;;;;;2.05;1.38;;;;;;;17.19;43.27;102037.03;5024487;28;20648;-73
2023/06/04 07:22:04;;;;;;;2.38;1.13;;;;;;;17.28;42.91;102043.81;5027189;28;20556;-73
2023/06/04 07:24:50;;;;;;;3.42;1.40;;;;;;;17.42;42.98;102044.09;5024658;28;20054;-72
2023/06/04 07:27:36;;;;;;;5.00;1.35;;;;;;;17.63;41.85;102044.16;5022480;28;20058;-73
2023/06/04 07:30:21;;;;;;;2.70;1.20;;;;;;;17.68;41.17;102044.88;5031401;28;20054;-73
2023/06/04 07:33:07;;;;;;;2.60;1.13;;;;;;;17.75;41.65;102035.66;5026034;28;20621;-73
2023/06/04 07:35:52;;;;;;;2.35;1.00;;;;;;;17.91;41.89;102046.56;4996335;28;20050;-73
2023/06/04 07:38:37;;;;;;;2.58;1.20;;;;;;;18.08;40.81;102039.66;5021756;28;20625;-73
2023/06/04 07:41:23;;;;;;;3.47;1.15;;;;;;;18.23;40.20;102041.69;5027921;28;20702;-72
2023/06/04 07:44:08;;;;;;;3.45;1.30;;;;;;;18.30;40.02;102035.13;5026366;28;20133;-72
2023/06/04 07:46:53;;;;;;;2.50;1.10;;;;;;;18.38;39.83;102040.13;5026166;28;20050;-73
2023/06/04 07:49:39;;;;;;;2.97;1.33;;;;;;;18.44;40.26;102034.50;5028437;28;20088;-72
2023/06/04 07:52:44;;;;;;;4.13;1.20;;;;;;;18.65;39.69;102038.97;5010355;28;20518;-73
2023/06/04 07:55:31;;;;;;;2.85;1.40;;;;;;;18.87;39.03;102038.84;5026610;28;20049;-72
2023/06/04 07:58:16;;;;;;;3.45;1.10;;;;;;;18.97;39.44;102042.84;5022748;28;20042;-73
2023/06/04 08:01:02;;;;;;;4.72;1.35;;;;;;;19.14;38.97;102038.50;5023645;28;20050;-72
2023/06/04 08:03:47;;;;;;;1.65;1.10;;;;;;;19.30;39.33;102038.63;5016783;28;20046;-72
2023/06/04 08:06:33;;;;;;;2.85;1.10;;;;;;;19.49;38.19;102036.78;5041697;28;20282;-73
2023/06/04 08:09:19;;;;;;;3.65;1.30;;;;;;;19.59;37.84;102031.00;5042017;28;20046;-73
2023/06/04 08:12:05;;;;;;;5.38;1.20;;;;;;;19.62;37.57;102044.22;5008664;28;20046;-73
2023/06/04 08:14:56;;;;;;;1.42;1.10;;;;;;;19.57;37.72;102030.22;5021262;28;20046;-72
2023/06/04 08:17:42;;;;;;;3.83;1.10;;;;;;;19.66;37.13;102033.28;5025792;28;20045;-73
2023/06/04 08:20:30;;;;;;;1.73;0.93;;;;;;;19.66;37.34;102030.63;5026314;28;20046;-72
2023/06/04 08:23:15;;;;;;;3.55;1.27;;;;;;;19.73;37.17;102039.22;5027754;28;20050;-73
2023/06/04 08:26:00;;;;;;;2.42;1.10;;;;;;;19.77;36.16;102039.91;5026125;28;20046;-73
2023/06/04 08:28:49;;;;;;;2.55;1.02;;;;;;;19.86;36.51;102035.00;5028240;28;21032;-73
2023/06/04 08:31:34;;;;;;;3.50;1.15;;;;;;;20.00;35.87;102036.97;5025317;28;20046;-73
2023/06/04 08:34:20;;;;;;;2.65;1.05;;;;;;;20.03;36.07;102043.97;5024429;28;20145;-73
2023/06/04 08:37:06;;;;;;;5.50;1.20;;;;;;;20.12;35.83;102040.81;5026687;28;20055;-73
2023/06/04 08:39:52;;;;;;;3.08;1.10;;;;;;;20.12;36.87;102040.81;5015348;28;20042;-73
2023/06/04 08:42:47;;;;;;;3.70;1.20;;;;;;;20.29;36.21;102031.91;5021447;28;20108;-73
2023/06/04 08:45:40;;;;;;;4.68;1.10;;;;;;;20.53;35.45;102042.28;5009616;28;20140;-73
2023/06/04 08:48:29;;;;;;;2.90;1.00;;;;;;;20.74;34.50;102036.75;5010284;28;20053;-73
2023/06/04 08:51:15;;;;;;;3.10;0.98;;;;;;;20.84;33.47;102039.75;5026649;28;20762;-73
2023/06/04 08:54:00;;;;;;;2.10;1.00;;;;;;;20.90;34.27;102039.44;5027481;28;20034;-73
2023/06/04 08:56:48;;;;;;;2.70;1.00;;;;;;;21.02;33.37;102037.88;5027418;28;20132;-73
2023/06/04 08:59:36;;;;;;;3.65;1.00;;;;;;;21.10;33.47;102041.88;5026742;28;20046;-73
2023/06/04 09:02:23;;;;;;;1.15;0.73;;;;;;;21.28;32.93;102051.63;5028173;28;20053;-73
2023/06/04 09:05:10;;;;;;;2.85;1.13;;;;;;;21.38;32.38;102047.47;5011879;28;20042;-73
2023/06/04 09:08:03;;;;;;;2.72;1.08;;;;;;;21.41;32.91;102045.50;5027851;28;20050;-73
2023/06/04 09:10:51;;;;;;;2.67;0.95;;;;;;;21.54;31.09;102051.03;5026447;28;20042;-73
2023/06/04 09:13:39;;;;;;;1.45;0.90;;;;;;;21.73;30.76;102049.97;5026701;28;20081;-73
2023/06/04 09:16:25;;;;;;;3.28;1.05;;;;;;;21.80;30.18;102045.97;5017504;28;20054;-73
2023/06/04 09:19:10;;;;;;;1.65;0.80;;;;;;;21.75;29.36;102049.88;5015758;28;20144;-73
2023/06/04 09:21:58;;;;;;;2.33;1.10;;;;;;;21.84;29.48;102046.66;5026356;28;20108;-74
2023/06/04 09:24:46;;;;;;;2.35;0.80;;;;;;;21.98;30.22;102043.13;5026700;28;20050;-73
2023/06/04 09:27:42;;;;;;;2.55;0.65;;;;;;;22.00;29.79;102044.81;5020156;28;20057;-73
2023/06/04 09:30:28;;;;;;;3.15;0.70;;;;;;;;;;5014684;28;20050;-73
2023/06/04 09:33:14;;;;;;;1.10;0.65;;;;;;;22.19;28.07;102035.63;5008458;28;20042;-73
2023/06/04 09:36:00;;;;;;;1.58;0.60;;;;;;;22.33;28.27;102049.06;5008718;28;20058;-74
2023/06/04 09:38:45;;;;;;;3.67;1.00;;;;;;;22.47;27.88;102045.59;5014383;28;20053;-74
2023/06/04 09:41:34;;;;;;;5.47;1.00;;;;;;;22.57;26.83;102047.69;5004649;28;20065;-73
2023/06/04 09:44:19;;;;;;;1.92;0.70;;;;;;;22.65;27.10;102042.69;5026905;28;20050;-73
2023/06/04 09:47:05;;;;;;;4.15;0.80;;;;;;;22.77;26.72;102041.06;5019505;28;20053;-74
2023/06/04 09:49:52;;;;;;;1.33;0.70;;;;;;;22.59;26.94;102045.75;5025328;28;20101;-73
2023/06/04 09:52:39;;;;;;;3.25;0.75;;;;;;;22.59;28.21;102043.06;5025455;28;20053;-73
2023/06/04 09:55:25;;;;;;;1.67;0.63;;;;;;;22.86;27.63;102039.63;5028131;28;20046;-73
2023/06/04 09:58:14;;;;;;;1.77;0.70;;;;;;;22.86;27.23;102047.69;5025361;28;20038;-73
2023/06/04 10:01:03;;;;;;;2.67;0.70;;;;;;;22.90;27.18;102047.38;5023684;28;20050;-73
2023/06/04 10:03:52;;;;;;;1.95;0.75;;;;;;;23.14;25.94;102043.22;5028132;28;20106;-73
2023/06/04 10:06:40;;;;;;;0.73;0.52;;;;;;;23.14;24.82;102036.03;5013079;28;20536;-73
2023/06/04 10:09:28;;;;;;;1.85;0.60;;;;;;;22.99;25.75;102034.31;5024298;28;20050;-73
2023/06/04 10:12:25;;;;;;;1.60;0.80;;;;;;;23.01;26.80;102032.38;5018618;28;20037;-74
2023/06/04 10:15:13;;;;;;;1.50;0.70;;;;;;;23.17;27.15;102034.94;5024082;28;20045;-73
2023/06/04 10:17:59;;;;;;;2.45;0.70;;;;;;;23.30;26.67;102037.72;5018420;28;20185;-73
2023/06/04 10:20:46;;;;;;;1.35;0.73;;;;;;;23.36;26.46;102037.31;5010689;28;20042;-73
2023/06/04 10:23:31;;;;;;;2.75;0.70;;;;;;;23.36;26.61;102040.88;5008617;28;20050;-73
2023/06/04 10:26:18;;;;;;;1.67;0.80;;;;;;;23.32;26.25;102038.50;5024222;28;20128;-73
2023/06/04 10:29:03;;;;;;;1.45;0.90;;;;;;;23.06;27.12;102038.31;5024430;28;20446;-73
2023/06/04 10:31:54;;;;;;;2.35;0.80;;;;;;;23.07;27.92;102032.88;5026840;28;20049;-73
2023/06/04 10:34:40;;;;;;;1.17;0.80;;;;;;;23.17;28.28;102030.41;5012329;28;20135;-72
2023/06/04 10:37:29;;;;;;;1.52;0.80;;;;;;;23.35;27.56;102033.78;5009222;28;20545;-72
2023/06/04 10:40:14;;;;;;;1.60;0.75;;;;;;;23.47;27.13;102033.94;5025023;28;20049;-73
2023/06/04 10:43:13;;;;;;;1.60;0.80;;;;;;;23.47;27.11;102042.84;5025362;28;20155;-73
2023/06/04 10:46:15;;;;;;;2.47;0.90;;;;;;;23.42;26.71;102037.78;5004844;28;20580;-73
2023/06/04 10:49:01;;;;;;;1.77;0.70;;;;;;;23.29;27.11;102031.50;5026645;28;20046;-72
2023/06/04 10:51:46;;;;;;;2.90;0.93;;;;;;;23.48;27.15;102035.66;5020262;28;20042;-72
2023/06/04 10:54:33;;;;;;;4.47;0.77;;;;;;;23.55;27.71;102024.34;5011466;28;20063;-72
2023/06/04 10:57:19;;;;;;;2.55;0.93;;;;;;;23.68;27.10;102037.00;4999183;28;20195;-74
2023/06/04 11:00:10;;;;;;;2.08;0.95;;;;;;;23.66;27.08;102029.03;5025484;28;20141;-74
2023/06/04 11:02:55;;;;;;;2.95;0.77;;;;;;;23.72;27.58;102027.75;5017304;28;20046;-73
2023/06/04 11:05:47;;;;;;;2.13;0.90;;;;;;;23.81;27.41;102029.81;5023570;28;20051;-73
2023/06/04 11:08:33;;;;;;;2.00;0.80;;;;;;;23.86;27.32;102026.81;5031481;28;20041;-73
2023/06/04 11:11:18;;;;;;;1.90;0.80;;;;;;;23.93;26.90;102024.56;5042163;28;20572;-73
2023/06/04 11:14:15;;;;;;;5.00;0.90;;;;;;;24.02;26.56;102027.50;5026952;28;20053;-73
2023/06/04 11:17:12;;;;;;;1.38;0.80;;;;;;;24.03;26.06;102026.53;5012675;28;20038;-74
2023/06/04 11:19:57;;;;;;;1.73;0.73;;;;;;;24.00;26.85;102024.09;5033757;28;20051;-73
2023/06/04 11:22:50;;;;;;;2.05;0.93;;;;;;;24.09;26.25;102009.09;5047529;28;20057;-73
2023/06/04 11:25:35;;;;;;;2.08;0.73;;;;;;;24.29;25.96;102013.09;5010483;28;20885;-73
2023/06/04 11:28:21;;;;;;;1.63;0.90;;;;;;;24.38;26.01;102000.78;5026676;28;20050;-74
2023/06/04 11:31:08;;;;;;;1.10;0.68;;;;;;;24.58;25.72;102009.28;5027282;28;20053;-73
2023/06/04 11:33:54;;;;;;;1.45;0.80;;;;;;;24.44;25.54;102008.47;5011989;28;20510;-73
2023/06/04 11:36:39;;;;;;;1.10;0.80;;;;;;;24.41;25.60;102002.44;5014847;28;20048;-73
2023/06/04 11:39:35;;;;;;;1.65;0.60;;;;;;;24.54;25.64;102000.56;5029184;28;20046;-74
2023/06/04 11:42:21;;;;;;;1.55;0.70;;;;;;;24.65;24.91;101997.97;5013747;28;20125;-74
2023/06/04 11:45:08;;;;;;;2.90;1.10;;;;;;;24.60;25.38;102000.16;5027703;28;20053;-74
2023/06/04 11:47:55;;;;;;;1.40;0.80;;;;;;;24.62;24.92;102002.72;5032778;28;20054;-73
2023/06/04 11:50:41;;;;;;;1.33;0.70;;;;;;;24.47;25.07;101999.28;5034406;28;20078;-73
2023/06/04 11:53:29;;;;;;;4.32;0.95;;;;;;;24.47;25.16;101986.66;5023378;28;20958;-73
2023/06/04 11:56:15;;;;;;;1.90;0.60;;;;;;;24.64;25.12;101985.47;5036676;28;20046;-73
2023/06/04 11:59:01;;;;;;;2.08;0.85;;;;;;;24.86;24.84;101989.31;5035352;28;20061;-73
2023/06/04 12:01:48;;;;;;;2.55;0.85;;;;;;;24.87;24.84;101992.91;5039070;28;20053;-73
2023/06/04 12:04:34;;;;;;;1.50;0.82;;;;;;;25.01;24.59;101986.47;5019142;28;20144;-73
2023/06/04 12:07:24;;;;;;;2.78;0.80;;;;;;;24.94;24.46;101994.16;5034612;28;20125;-74
2023/06/04 12:10:11;;;;;;;1.80;0.93;;;;;;;24.83;24.96;101986.00;5033866;28;20042;-73
2023/06/04 12:13:00;;;;;;;1.10;0.73;;;;;;;24.87;24.83;101977.56;5029284;28;20209;-73
2023/06/04 12:15:53;;;;;;;1.52;0.70;;;;;;;24.97;25.05;101975.06;5035907;28;20037;-73
2023/06/04 12:18:38;;;;;;;3.45;0.65;;;;;;;25.16;24.85;101981.78;5048167;28;20053;-73
2023/06/04 12:21:27;;;;;;;1.33;0.60;;;;;;;25.30;23.84;102002.34;5049282;28;20502;-73
2023/06/04 12:24:14;;;;;;;1.50;0.73;;;;;;;25.08;23.61;101991.28;5034301;28;20097;-74
2023/06/04 12:27:08;;;;;;;1.48;0.60;;;;;;;25.07;23.65;101986.00;5005188;28;20049;-73
2023/06/04 12:30:07;;;;;;;3.47;0.82;;;;;;;24.86;23.66;101973.13;5017684;28;20042;-73
2023/06/04 12:32:53;;;;;;;1.02;0.75;;;;;;;24.78;24.22;101973.69;5010256;28;20045;-73
2023/06/04 12:35:40;;;;;;;0.75;0.60;;;;;;;25.01;24.07;101973.84;5030817;28;20046;-73
2023/06/04 12:38:26;;;;;;;1.15;0.70;;;;;;;25.10;23.57;101977.69;5012202;28;20133;-73
2023/06/04 12:41:12;;;;;;;1.65;0.73;;;;;;;24.98;23.70;101979.44;5028178;28;20133;-74
2023/06/04 12:43:57;;;;;;;1.20;0.80;;;;;;;24.88;24.43;101968.50;5029144;28;20109;-73
2023/06/04 12:46:44;;;;;;;2.30;0.60;;;;;;;25.20;23.34;101981.44;5026446;28;20042;-74
2023/06/04 12:49:30;;;;;;;3.08;0.98;;;;;;;25.09;23.73;101973.28;5010870;28;20061;-74
2023/06/04 12:52:17;;;;;;;1.52;0.60;;;;;;;25.12;24.38;101965.81;5025666;28;20042;-74
2023/06/04 12:55:03;;;;;;;1.65;0.80;;;;;;;25.33;24.84;101962.47;5022273;28;20046;-75
2023/06/04 12:57:49;;;;;;;1.63;0.80;;;;;;;25.52;24.08;101969.19;5023725;28;20054;-74